You are not logged in, Click here to log in
羅曼·莫圖國際機場ROR / PTRO 帛琉共和國 艾拉伊州
ICAO: PTRO Country: 帛琉共和國 艾拉伊州
Latitude: 7.36765 Longitude: 134.544
Total Arrivals: 7 Total Departures: 5
Latest Arrival: CI28 (RCTP-PTRO)CHANG SHENG. HSIUNG Latest Departure: FS02 (PTRO-AGGH)CHANG SHENG. HSIUNG
Scenery:
METAR : PTRO 091950Z 02003KT 15SM SCT015 BKN290 25/23 A2974

羅曼·莫圖國際機場ROR

You are accessing this site from IP address 35.170.81.210. Virtual Airline. CMS by phpVMS.Website designed by Zumeweb and edited by Theo Bearman.
There is 0 User(s) Online: | and 11 Guest(s) Online.
All information on this site is for fight simulation purposes only. This site is for flight logging for pilots of Virtual Airline&模擬飛行論壇 FlySim only.